createdAt,value
2023-02-02T00:02:51.238Z,100096.00
2023-02-02T00:05:54.522Z,100066.91
2023-02-02T00:08:58.574Z,100069.03
2023-02-02T00:12:01.470Z,100061.25
2023-02-02T00:15:04.014Z,100096.00
2023-02-02T00:18:07.400Z,100112.16
2023-02-02T00:21:09.835Z,100095.50
2023-02-02T00:24:14.392Z,100107.34
2023-02-02T00:27:16.929Z,100111.56
2023-02-02T00:30:19.753Z,100085.91
2023-02-02T00:33:22.559Z,100061.63
2023-02-02T00:36:25.402Z,100066.69
2023-02-02T00:39:27.808Z,100019.38
2023-02-02T00:42:30.493Z,100005.25
2023-02-02T00:45:32.801Z,100038.19
2023-02-02T00:48:35.489Z,100008.66
2023-02-02T00:51:38.172Z,100024.16
2023-02-02T00:54:41.066Z,100039.19
2023-02-02T00:57:46.306Z,100025.38
2023-02-02T01:00:48.960Z,100026.69
2023-02-02T01:03:52.111Z,100064.06
2023-02-02T01:06:54.731Z,100060.22
2023-02-02T01:09:57.137Z,100077.22
2023-02-02T01:12:59.792Z,100051.03
2023-02-02T01:16:05.843Z,100075.59
2023-02-02T01:19:09.170Z,100034.78
2023-02-02T01:22:11.589Z,100022.06
2023-02-02T01:25:14.373Z,100032.75
2023-02-02T01:28:16.693Z,100011.75
2023-02-02T01:31:20.832Z,100058.41
2023-02-02T01:34:23.697Z,100046.50
2023-02-02T01:37:26.284Z,100075.97
2023-02-02T01:40:28.618Z,100044.25
2023-02-02T01:43:44.214Z,100062.94
2023-02-02T01:46:46.558Z,100076.69
2023-02-02T01:49:49.515Z,100065.28
2023-02-02T01:52:55.547Z,100059.44
2023-02-02T01:55:58.971Z,99989.59
2023-02-02T01:59:02.473Z,100043.47
2023-02-02T02:02:06.702Z,100022.44
2023-02-02T02:05:10.813Z,100038.00
2023-02-02T02:08:20.912Z,100031.94
2023-02-02T02:11:24.911Z,100002.84
2023-02-02T02:15:06.408Z,99994.56
2023-02-02T02:18:27.487Z,100022.06
2023-02-02T02:22:01.067Z,99978.81
2023-02-02T02:25:22.585Z,100019.00
2023-02-02T02:28:47.387Z,100016.37
2023-02-02T02:32:05.834Z,100020.03
2023-02-02T02:35:41.742Z,100012.75
2023-02-02T02:38:56.888Z,99997.41
2023-02-02T02:42:07.875Z,100038.50
2023-02-02T02:45:12.887Z,100043.34
2023-02-02T02:48:15.573Z,100055.41
2023-02-02T02:51:50.364Z,100037.78
2023-02-02T02:54:54.449Z,100052.12
2023-02-02T02:58:19.766Z,100063.66
2023-02-02T03:01:31.630Z,100065.88
2023-02-02T03:05:11.132Z,100059.81
2023-02-02T03:08:29.564Z,100059.00
2023-02-02T03:11:32.309Z,100060.53
2023-02-02T03:14:36.193Z,100059.44
2023-02-02T03:17:39.175Z,100049.94
2023-02-02T03:20:44.051Z,100047.50
2023-02-02T03:23:46.683Z,100040.09
2023-02-02T03:26:49.132Z,100020.59
2023-02-02T03:29:52.418Z,100024.94
2023-02-02T03:32:54.808Z,100062.62
2023-02-02T03:35:57.366Z,100047.94
2023-02-02T03:38:59.724Z,100019.69
2023-02-02T03:42:02.369Z,100017.66
2023-02-02T03:45:07.724Z,100024.22
2023-02-02T03:48:10.481Z,100031.06
2023-02-02T03:51:14.394Z,100035.31
2023-02-02T03:54:17.006Z,100024.66
2023-02-02T03:57:19.401Z,100025.19
2023-02-02T04:00:22.163Z,100068.00
2023-02-02T04:03:24.737Z,100050.63
2023-02-02T04:06:27.270Z,100040.13
2023-02-02T04:09:29.845Z,100033.28
2023-02-02T04:12:32.181Z,99985.59
2023-02-02T04:15:34.941Z,100011.47
2023-02-02T04:18:38.182Z,100010.44
2023-02-02T04:21:41.108Z,99976.31
2023-02-02T04:24:43.439Z,100014.78
2023-02-02T04:27:46.194Z,100009.50
2023-02-02T04:30:48.719Z,100025.94
2023-02-02T04:33:51.409Z,100005.00
2023-02-02T04:36:53.747Z,100017.06
2023-02-02T04:39:56.393Z,100021.41
2023-02-02T04:42:58.765Z,100025.50
2023-02-02T04:46:01.683Z,100008.97
2023-02-02T04:49:04.042Z,100059.16
2023-02-02T04:52:06.737Z,100035.53
2023-02-02T04:55:09.302Z,100040.09
2023-02-02T04:58:12.168Z,100053.28
2023-02-02T05:01:19.887Z,100050.91
2023-02-02T05:04:22.620Z,100064.72
2023-02-02T05:07:24.893Z,100065.28
2023-02-02T05:10:27.717Z,100036.13
2023-02-02T05:13:30.047Z,100037.75
2023-02-02T05:16:32.666Z,100064.22
2023-02-02T05:19:35.037Z,100096.91
2023-02-02T05:22:37.633Z,100096.91
2023-02-02T05:25:39.924Z,100116.94
2023-02-02T05:28:42.959Z,100113.53
2023-02-02T05:31:45.370Z,100102.34
2023-02-02T05:34:48.021Z,100135.53
2023-02-02T05:37:50.500Z,100150.94
2023-02-02T05:40:53.102Z,100138.84
2023-02-02T05:43:55.440Z,100134.53
2023-02-02T05:46:58.087Z,100151.34
2023-02-02T05:50:02.503Z,100133.53
2023-02-02T05:53:05.182Z,100141.66
2023-02-02T05:56:07.791Z,100137.31
2023-02-02T05:59:10.435Z,100156.75
2023-02-02T06:02:12.754Z,100120.47
2023-02-02T06:05:15.497Z,100147.97
2023-02-02T06:08:17.862Z,100129.72
2023-02-02T06:11:20.481Z,100131.94
2023-02-02T06:14:22.773Z,100124.87
2023-02-02T06:17:25.488Z,100126.62
2023-02-02T06:20:28.761Z,100116.34
2023-02-02T06:23:31.858Z,100113.69
2023-02-02T06:26:34.204Z,100116.19
2023-02-02T06:29:36.830Z,100122.97
2023-02-02T06:32:39.353Z,100116.72
2023-02-02T06:35:42.032Z,100135.19
2023-02-02T06:38:44.551Z,100118.53
2023-02-02T06:41:48.371Z,100127.09
2023-02-02T06:44:50.738Z,100128.75
2023-02-02T06:47:53.765Z,100121.00
2023-02-02T06:51:00.630Z,100102.94
2023-02-02T06:54:03.939Z,100133.19
2023-02-02T06:57:06.281Z,100132.47
2023-02-02T07:00:09.763Z,100142.37
2023-02-02T07:03:12.107Z,100139.38
2023-02-02T07:06:15.891Z,100151.59
2023-02-02T07:09:18.381Z,100141.44
2023-02-02T07:12:21.042Z,100155.78
2023-02-02T07:15:24.120Z,100141.81
2023-02-02T07:18:27.038Z,100172.56
2023-02-02T07:21:35.459Z,100152.56
2023-02-02T07:24:38.287Z,100170.31
2023-02-02T07:27:40.625Z,100204.56
2023-02-02T07:30:43.291Z,100193.44
2023-02-02T07:33:47.346Z,100210.13
2023-02-02T07:36:50.375Z,100197.56
2023-02-02T07:39:52.733Z,100197.84
2023-02-02T07:42:55.535Z,100230.87
2023-02-02T07:46:02.824Z,100223.69
2023-02-02T07:49:06.147Z,100194.97
2023-02-02T07:52:09.495Z,100208.06
2023-02-02T07:55:14.700Z,100196.75
2023-02-02T07:58:17.397Z,100196.09
2023-02-02T08:01:22.854Z,100221.41
2023-02-02T08:04:25.675Z,100210.09
2023-02-02T08:07:28.234Z,100193.66
2023-02-02T08:10:30.882Z,100197.06
2023-02-02T08:13:33.361Z,100213.22
2023-02-02T08:16:36.120Z,100220.56
2023-02-02T08:19:38.543Z,100203.13
2023-02-02T08:22:41.450Z,100230.19
2023-02-02T08:25:43.807Z,100216.34
2023-02-02T08:28:49.245Z,100230.31
2023-02-02T08:31:51.672Z,100221.62
2023-02-02T08:34:54.609Z,100225.56
2023-02-02T08:37:57.016Z,100195.63
2023-02-02T08:41:07.511Z,100215.47
2023-02-02T08:44:13.301Z,100193.75
2023-02-02T08:47:15.897Z,100215.41
2023-02-02T08:50:18.356Z,100192.19
2023-02-02T08:53:21.381Z,100213.06
2023-02-02T08:56:24.214Z,100221.81
2023-02-02T08:59:26.860Z,100202.41
2023-02-02T09:02:29.232Z,100238.94
2023-02-02T09:05:32.068Z,100238.88
2023-02-02T09:08:34.671Z,100216.53
2023-02-02T09:11:39.304Z,100227.25
2023-02-02T09:14:41.625Z,100223.16
2023-02-02T09:17:45.181Z,100229.09
2023-02-02T09:20:47.564Z,100263.03
2023-02-02T09:23:51.586Z,100257.25
2023-02-02T09:26:54.043Z,100232.91
2023-02-02T09:29:56.983Z,100254.25
2023-02-02T09:32:59.314Z,100241.03
2023-02-02T09:36:10.576Z,100235.22
2023-02-02T09:39:15.017Z,100258.34
2023-02-02T09:42:48.772Z,100247.34
2023-02-02T09:46:07.374Z,100261.41
2023-02-02T09:49:16.776Z,100264.66
2023-02-02T09:52:30.212Z,100260.63
2023-02-02T09:55:44.541Z,100263.53
2023-02-02T09:58:53.810Z,100240.56
2023-02-02T10:02:03.920Z,100263.97
2023-02-02T10:05:21.202Z,100227.63
2023-02-02T10:08:52.383Z,100273.34
2023-02-02T10:12:05.191Z,100248.97
2023-02-02T10:15:13.473Z,100269.16
2023-02-02T10:18:27.124Z,100280.25
2023-02-02T10:21:36.635Z,100280.09
2023-02-02T10:24:39.447Z,100273.31
2023-02-02T10:27:49.087Z,100269.28
2023-02-02T10:30:59.934Z,100266.81
2023-02-02T10:34:14.138Z,100250.69
2023-02-02T10:37:42.317Z,100250.81
2023-02-02T10:40:57.997Z,100265.50
2023-02-02T10:44:30.074Z,100240.00
2023-02-02T10:47:33.856Z,100244.56
2023-02-02T10:50:36.557Z,100214.38
2023-02-02T10:53:38.774Z,100245.75
2023-02-02T10:56:47.513Z,100225.66
2023-02-02T11:00:15.899Z,100199.47
2023-02-02T11:03:21.207Z,100219.38
2023-02-02T11:06:42.301Z,100201.06
2023-02-02T11:09:44.924Z,100232.00
2023-02-02T11:12:53.177Z,100233.34
2023-02-02T11:16:14.462Z,100244.25
2023-02-02T11:19:19.977Z,100255.84
2023-02-02T11:22:34.124Z,100249.97
2023-02-02T11:25:37.952Z,100215.41
2023-02-02T11:28:40.687Z,100230.31
2023-02-02T11:31:44.484Z,100241.50
2023-02-02T11:34:47.226Z,100223.16
2023-02-02T11:38:10.169Z,100253.25
2023-02-02T11:41:15.393Z,100257.28
2023-02-02T11:44:25.874Z,100267.03
2023-02-02T11:47:32.683Z,100244.25
2023-02-02T11:50:36.429Z,100279.72
2023-02-02T11:53:42.214Z,100254.03
2023-02-02T11:56:52.001Z,100278.38
2023-02-02T12:00:16.060Z,100282.31
2023-02-02T12:03:28.447Z,100288.22
2023-02-02T12:06:35.662Z,100279.91
2023-02-02T12:09:38.358Z,100287.81
2023-02-02T12:12:43.432Z,100275.22
2023-02-02T12:15:59.022Z,100281.31
2023-02-02T12:19:24.719Z,100260.47
2023-02-02T12:22:42.465Z,100281.84
2023-02-02T12:26:03.083Z,100283.19
2023-02-02T12:29:24.826Z,100278.22
2023-02-02T12:32:44.740Z,100283.88
2023-02-02T12:35:50.291Z,100254.63
2023-02-02T12:39:26.711Z,100276.88
2023-02-02T12:42:47.739Z,100269.78
2023-02-02T12:46:35.487Z,100274.13
2023-02-02T12:50:10.394Z,100279.56
2023-02-02T12:53:18.556Z,100274.72
2023-02-02T12:56:42.694Z,100277.87
2023-02-02T13:00:02.951Z,100270.72
2023-02-02T13:03:05.665Z,100274.09
2023-02-02T13:06:42.343Z,100278.41
2023-02-02T13:09:59.455Z,100275.94
2023-02-02T13:13:04.639Z,100281.56
2023-02-02T13:16:11.577Z,100286.56
2023-02-02T13:19:46.559Z,100255.84
2023-02-02T13:22:54.240Z,100288.13
2023-02-02T13:26:18.095Z,100270.28
2023-02-02T13:29:51.419Z,100301.16
2023-02-02T13:32:58.254Z,100305.00
2023-02-02T13:36:05.940Z,100276.31
2023-02-02T13:39:35.196Z,100292.81
2023-02-02T13:42:43.588Z,100299.25
2023-02-02T13:45:55.844Z,100288.91
2023-02-02T13:49:31.318Z,100270.38
2023-02-02T13:52:52.173Z,100300.78
2023-02-02T13:56:20.180Z,100294.59
2023-02-02T13:59:34.428Z,100278.25
2023-02-02T14:02:44.124Z,100308.97
2023-02-02T14:06:24.815Z,100286.03
2023-02-02T14:09:33.082Z,100304.38
2023-02-02T14:12:36.370Z,100319.75
2023-02-02T14:15:41.216Z,100289.06
2023-02-02T14:18:54.145Z,100307.53
2023-02-02T14:22:10.104Z,100314.44
2023-02-02T14:25:44.881Z,100292.69
2023-02-02T14:28:49.985Z,100304.03
2023-02-02T14:31:54.991Z,100310.12
2023-02-02T14:35:26.719Z,100288.72
2023-02-02T14:38:47.444Z,100327.81
2023-02-02T14:42:31.154Z,100321.16
2023-02-02T14:45:34.857Z,100330.28
2023-02-02T14:48:41.210Z,100322.81
2023-02-02T14:51:49.296Z,100290.63
2023-02-02T14:54:52.006Z,100325.66
2023-02-02T14:58:02.456Z,100300.09
2023-02-02T15:01:28.969Z,100331.28
2023-02-02T15:04:31.815Z,100327.53
2023-02-02T15:07:34.189Z,100294.34
2023-02-02T15:10:54.996Z,100328.59
2023-02-02T15:14:07.437Z,100340.03
2023-02-02T15:17:25.117Z,100329.00
2023-02-02T15:20:27.373Z,100349.28
2023-02-02T15:23:43.761Z,100346.03
2023-02-02T15:26:48.359Z,100326.62
2023-02-02T15:29:56.878Z,100353.38
2023-02-02T15:33:05.480Z,100347.19
2023-02-02T15:36:26.991Z,100335.34
2023-02-02T15:39:47.352Z,100341.84
2023-02-02T15:42:54.934Z,100366.34
2023-02-02T15:46:07.390Z,100381.56
2023-02-02T15:49:34.434Z,100386.37
2023-02-02T15:52:48.253Z,100369.09
2023-02-02T15:55:51.687Z,100370.59
2023-02-02T15:58:57.068Z,100389.66
2023-02-02T16:02:08.471Z,100374.03
2023-02-02T16:05:36.652Z,100395.31
2023-02-02T16:08:40.025Z,100356.84
2023-02-02T16:11:43.475Z,100402.03
2023-02-02T16:14:48.368Z,100377.59
2023-02-02T16:18:04.752Z,100360.47
2023-02-02T16:21:14.979Z,100407.38
2023-02-02T16:24:28.645Z,100414.75
2023-02-02T16:27:32.773Z,100394.56
2023-02-02T16:30:38.886Z,100401.16
2023-02-02T16:33:43.021Z,100434.16
2023-02-02T16:37:05.244Z,100430.00
2023-02-02T16:40:40.052Z,100392.84
2023-02-02T16:43:43.466Z,100451.38
2023-02-02T16:46:49.857Z,100447.94
2023-02-02T16:50:08.435Z,100420.75
2023-02-02T16:53:22.724Z,100430.66
2023-02-02T16:56:41.817Z,100462.66
2023-02-02T16:59:49.701Z,100471.53
2023-02-02T17:02:59.200Z,100467.87
2023-02-02T17:06:04.101Z,100479.44
2023-02-02T17:09:17.033Z,100447.37
2023-02-02T17:12:32.755Z,100483.09
2023-02-02T17:15:36.934Z,100491.78
2023-02-02T17:18:40.173Z,100471.47
2023-02-02T17:21:42.846Z,100495.78
2023-02-02T17:24:47.077Z,100464.34
2023-02-02T17:27:49.889Z,100489.88
2023-02-02T17:31:02.124Z,100473.06
2023-02-02T17:34:11.800Z,100474.47
2023-02-02T17:37:14.183Z,100490.03
2023-02-02T17:40:18.339Z,100495.63
2023-02-02T17:43:21.141Z,100524.34
2023-02-02T17:46:24.911Z,100504.53
2023-02-02T17:49:27.924Z,100504.31
2023-02-02T17:52:30.524Z,100512.09
2023-02-02T17:55:37.534Z,100518.19
2023-02-02T17:58:40.526Z,100496.34
2023-02-02T18:01:42.933Z,100497.97
2023-02-02T18:04:45.883Z,100509.34
2023-02-02T18:07:48.244Z,100502.50
2023-02-02T18:10:50.931Z,100501.50
2023-02-02T18:13:53.360Z,100511.81
2023-02-02T18:16:56.205Z,100540.62
2023-02-02T18:19:58.515Z,100528.94
2023-02-02T18:23:01.112Z,100539.28
2023-02-02T18:26:18.696Z,100546.19
2023-02-02T18:29:21.388Z,100556.88
2023-02-02T18:32:23.712Z,100578.41
2023-02-02T18:35:28.370Z,100584.38
2023-02-02T18:38:30.932Z,100560.03
2023-02-02T18:41:33.665Z,100579.87
2023-02-02T18:44:38.395Z,100595.31
2023-02-02T18:47:41.590Z,100562.25
2023-02-02T18:50:44.064Z,100563.84
2023-02-02T18:53:48.014Z,100589.91
2023-02-02T18:56:50.336Z,100591.75
2023-02-02T18:59:53.073Z,100573.59
2023-02-02T19:02:55.519Z,100546.72
2023-02-02T19:06:16.537Z,100583.63
2023-02-02T19:09:19.031Z,100556.31
2023-02-02T19:12:28.520Z,100573.75
2023-02-02T19:15:34.091Z,100574.12
2023-02-02T19:18:36.747Z,100619.47
2023-02-02T19:21:41.425Z,100588.53
2023-02-02T19:24:44.047Z,100565.94
2023-02-02T19:27:46.374Z,100601.78
2023-02-02T19:30:50.833Z,100592.28
2023-02-02T19:33:53.629Z,100574.56
2023-02-02T19:36:56.214Z,100609.47
2023-02-02T19:40:13.722Z,100615.22
2023-02-02T19:43:25.203Z,100623.41
2023-02-02T19:46:29.554Z,100589.84
2023-02-02T19:49:34.329Z,100616.13
2023-02-02T19:52:36.740Z,100625.12
2023-02-02T19:55:41.703Z,100602.59
2023-02-02T19:58:44.309Z,100631.16
2023-02-02T20:01:50.553Z,100641.81
2023-02-02T20:05:02.036Z,100642.41
2023-02-02T20:08:40.122Z,100622.38
2023-02-02T20:11:45.899Z,100658.03
2023-02-02T20:14:48.777Z,100638.03
2023-02-02T20:17:54.339Z,100661.88
2023-02-02T20:20:57.508Z,100667.56
2023-02-02T20:24:00.144Z,100634.22
2023-02-02T20:27:16.597Z,100676.03
2023-02-02T20:30:22.979Z,100645.09
2023-02-02T20:33:27.406Z,100667.91
2023-02-02T20:36:42.864Z,100674.91
2023-02-02T20:39:52.047Z,100663.00
2023-02-02T20:42:56.952Z,100702.16
2023-02-02T20:45:59.335Z,100676.75
2023-02-02T20:49:04.673Z,100708.84
2023-02-02T20:52:11.108Z,100720.19
2023-02-02T20:55:13.964Z,100722.91
2023-02-02T20:58:16.291Z,100721.00
2023-02-02T21:01:19.476Z,100705.88
2023-02-02T21:04:22.444Z,100735.78
2023-02-02T21:07:26.120Z,100720.88
2023-02-02T21:10:28.860Z,100745.34
2023-02-02T21:13:31.627Z,100751.56
2023-02-02T21:16:34.063Z,100745.28
2023-02-02T21:19:37.285Z,100745.84
2023-02-02T21:22:39.931Z,100713.31
2023-02-02T21:25:42.549Z,100739.63
2023-02-02T21:28:44.822Z,100735.56
2023-02-02T21:31:47.749Z,100710.84
2023-02-02T21:34:50.423Z,100707.84
2023-02-02T21:37:56.707Z,100747.00
2023-02-02T21:40:59.625Z,100733.97
2023-02-02T21:44:02.334Z,100748.69
2023-02-02T21:47:22.328Z,100722.09
2023-02-02T21:50:25.093Z,100761.78
2023-02-02T21:53:27.793Z,100773.53
2023-02-02T21:56:38.192Z,100741.69
2023-02-02T21:59:40.520Z,100762.41
2023-02-02T22:02:47.997Z,100785.78
2023-02-02T22:05:50.892Z,100763.00
2023-02-02T22:09:00.121Z,100763.56
2023-02-02T22:12:22.313Z,100759.47
2023-02-02T22:15:29.843Z,100790.25
2023-02-02T22:18:35.628Z,100798.94
2023-02-02T22:21:37.900Z,100788.66
2023-02-02T22:24:41.590Z,100748.47
2023-02-02T22:27:50.085Z,100812.06
2023-02-02T22:30:55.026Z,100785.69
2023-02-02T22:33:57.422Z,100819.94
2023-02-02T22:36:59.985Z,100821.88
2023-02-02T22:40:02.310Z,100795.00
2023-02-02T22:43:06.496Z,100830.03
2023-02-02T22:46:09.010Z,100813.19
2023-02-02T22:49:11.632Z,100830.63
2023-02-02T22:52:13.959Z,100808.88
2023-02-02T22:55:16.781Z,100851.31
2023-02-02T22:58:19.091Z,100850.78
2023-02-02T23:01:21.663Z,100829.06
2023-02-02T23:04:23.984Z,100864.41
2023-02-02T23:07:26.610Z,100868.25
2023-02-02T23:10:34.607Z,100886.53
2023-02-02T23:13:37.767Z,100838.62
2023-02-02T23:16:40.067Z,100891.97
2023-02-02T23:19:42.669Z,100890.59
2023-02-02T23:22:45.205Z,100900.41
2023-02-02T23:25:47.882Z,100884.94
2023-02-02T23:28:50.798Z,100904.25
2023-02-02T23:31:53.534Z,100902.88
2023-02-02T23:34:55.895Z,100871.84
2023-02-02T23:37:58.617Z,100875.66
2023-02-02T23:41:00.963Z,100907.25
2023-02-02T23:44:10.873Z,100874.59
2023-02-02T23:47:13.244Z,100892.03
2023-02-02T23:50:18.837Z,100917.34
2023-02-02T23:53:21.309Z,100897.75
2023-02-02T23:56:24.502Z,100934.22
2023-02-02T23:59:26.822Z,100905.34
